EW3232 Pla de la Font ES current weather conditions

sailwx.info

Wind from 002 at 0 knots gusting 1

Air temperature 18.9° C
Dewpoint 14.4° C

Last reported at 2020-Aug-12 05:50 UTC.
Time now 2020-Aug-12 06:57 UTC

Location: N 40°31' E 000°10'.
View on Google Maps.

See reports from other nearby stations

  
Tides and Currents Weather Stations Pressure Air Temp Water Temp Dewpoint Dewpoint Depression Visibility Wind Speed Wind Dir Waves Ship Positions
date/time (UTC)wind fromknots sea level pressurealtimeterstation pressurevisibilityair tempwater tempwave heightnotes
2020-Aug-12 05:50 002 0 gusting 1 18.9
2020-Aug-12 05:40 349 18.9
2020-Aug-12 05:35 349 18.9
2020-Aug-12 05:31 338 18.9
2020-Aug-12 05:26 338 18.9
2020-Aug-12 05:20 330 18.9
2020-Aug-12 05:16 308 2 gusting 2 18.9
2020-Aug-12 05:02 025 20.0
2020-Aug-12 04:56 025 20.0
2020-Aug-12 04:36 336 0 gusting 3 20.6
2020-Aug-12 04:10 067 3 gusting 6 21.7
2020-Aug-12 04:06 077 2 gusting 5 21.7
2020-Aug-12 04:01 055 0 gusting 4 21.1
2020-Aug-12 03:55 075 21.1
2020-Aug-12 03:50 075 21.7
2020-Aug-12 03:48 151 22.2
2020-Aug-12 03:40 151 0 gusting 4 22.2
2020-Aug-12 03:30 003 4 gusting 7 22.8
2020-Aug-12 03:25 005 5 gusting 8 22.8
2020-Aug-12 02:35 001 0 gusting 1 21.7
2020-Aug-12 02:31 002 21.7
2020-Aug-12 02:25 002 21.7
2020-Aug-12 02:21 354 1 gusting 3 21.7
2020-Aug-12 01:10 052 21.1
2020-Aug-12 01:05 052 21.7
2020-Aug-12 01:01 138 0 gusting 2 21.7
2020-Aug-12 00:55 099 0 gusting 2 21.7
2020-Aug-12 00:50 151 0 gusting 3 21.7
2020-Aug-12 00:35 221 0 gusting 3 22.2
2020-Aug-12 00:32 207 2 gusting 7 22.8
2020-Aug-12 00:25 027 1 gusting 9 22.8
2020-Aug-12 00:20 057 3 gusting 9 22.8
2020-Aug-12 00:16 035 6 gusting 11 22.8
2020-Aug-12 00:11 039 4 gusting 11 22.8
2020-Aug-12 00:02 060 5 gusting 10 22.8
2020-Aug-11 23:55 038 4 gusting 9 22.8
2020-Aug-11 23:40 360 0 gusting 2 20.6
2020-Aug-11 23:35 332 0 gusting 2 20.6
2020-Aug-11 23:20 071 20.6
2020-Aug-11 23:10 072 20.6
2020-Aug-11 22:55 057 20.6
2020-Aug-11 22:45 057 20.6
2020-Aug-11 22:35 346 0 gusting 3 20.0
2020-Aug-11 22:20 034 20.6
2020-Aug-11 22:17 358 0 gusting 1 20.6
2020-Aug-11 22:10 358 20.6
2020-Aug-11 22:00 357 0 gusting 3 20.6
2020-Aug-11 21:55 340 0 gusting 3 20.6
2020-Aug-11 21:40 352 21.7
2020-Aug-11 21:35 352 21.7
2020-Aug-11 21:30 352 1 gusting 2 21.7
2020-Aug-11 21:20 354 0 gusting 2 21.7
2020-Aug-11 21:15 006 0 gusting 2 22.2
2020-Aug-11 21:10 335 0 gusting 2 22.2
2020-Aug-11 21:00 340 0 gusting 3 22.2
2020-Aug-11 20:55 012 1 gusting 3 22.8
2020-Aug-11 20:50 323 1 gusting 3 22.8
2020-Aug-11 20:40 312 3 gusting 4 22.8
2020-Aug-11 20:35 316 1 gusting 2 22.8
2020-Aug-11 20:31 333 1 gusting 2 22.8
2020-Aug-11 20:26 332 1 gusting 3 22.8
2020-Aug-11 20:20 358 22.8
2020-Aug-11 20:11 321 1 gusting 4 22.8
2020-Aug-11 20:02 321 3 gusting 4 22.8
2020-Aug-11 19:55 315 2 gusting 3 22.8
2020-Aug-11 19:51 328 2 gusting 3 22.8
2020-Aug-11 19:47 335 1 gusting 2 23.3
2020-Aug-11 19:30 315 2 gusting 3 23.3
2020-Aug-11 19:25 333 1 gusting 2 23.9
2020-Aug-11 19:20 334 0 gusting 3 23.9
2020-Aug-11 19:16 307 1 gusting 3 23.9
2020-Aug-11 19:10 013 0 gusting 2 23.9
2020-Aug-11 19:01 334 24.4
2020-Aug-11 18:56 050 25.0
2020-Aug-11 18:35 076 26.1
2020-Aug-11 18:30 120 0 gusting 3 26.1
2020-Aug-11 18:02 134 2 gusting 5 27.2
2020-Aug-11 17:55 116 3 gusting 5 27.2
2020-Aug-11 17:50 125 2 gusting 4 27.2
2020-Aug-11 17:47 100 2 gusting 6 27.2
2020-Aug-11 17:30 078 3 gusting 6 27.8
2020-Aug-11 17:25 095 2 gusting 6 27.8
2020-Aug-11 17:15 124 5 gusting 7 27.8
2020-Aug-11 17:10 112 2 gusting 5 27.8
2020-Aug-11 16:45 088 3 gusting 7 27.8
2020-Aug-11 16:35 123 6 gusting 10 27.8
2020-Aug-11 16:30 117 5 gusting 10 27.2
2020-Aug-11 16:26 098 5 gusting 9 27.2
2020-Aug-11 15:40 095 4 gusting 6 27.2
2020-Aug-11 15:36 094 2 gusting 6 27.2
2020-Aug-11 15:30 086 4 gusting 7 27.2
2020-Aug-11 15:25 121 4 gusting 7 27.2
2020-Aug-11 15:21 065 5 gusting 7 27.2
2020-Aug-11 14:46 106 6 gusting 9 26.7
2020-Aug-11 14:40 103 6 gusting 10 26.7
2020-Aug-11 14:36 126 6 gusting 10 26.7
2020-Aug-11 14:05 097 3 gusting 7 26.1
2020-Aug-11 13:50 081 4 gusting 6 26.1
2020-Aug-11 13:45 048 2 gusting 5 25.6
2020-Aug-11 13:20 081 2 gusting 5 25.6
2020-Aug-11 13:16 135 2 gusting 6 25.6
2020-Aug-11 13:10 109 2 gusting 6 25.6
2020-Aug-11 13:05 100 4 gusting 7 25.6
2020-Aug-11 13:01 059 5 gusting 10 25.6
2020-Aug-11 12:35 152 8 gusting 13 27.2
2020-Aug-11 12:30 094 6 gusting 11 27.8
2020-Aug-11 12:25 127 6 gusting 11 27.8
2020-Aug-11 12:20 145 3 gusting 7 27.8
2020-Aug-11 12:15 098 3 gusting 6 27.8
2020-Aug-11 12:10 076 3 gusting 6 27.8
2020-Aug-11 11:40 081 0 gusting 2 27.8
2020-Aug-11 11:30 078 0 gusting 3 27.8
2020-Aug-11 11:21 079 1 gusting 6 27.8
2020-Aug-11 10:50 140 2 gusting 5 27.8
2020-Aug-11 10:30 197 0 gusting 3 27.8
2020-Aug-11 10:25 236 1 gusting 4 27.2
2020-Aug-11 10:20 221 1 gusting 4 27.2
2020-Aug-11 10:15 091 0 gusting 4 27.2
2020-Aug-11 10:05 225 26.7
2020-Aug-11 10:00 201 26.7
2020-Aug-11 09:55 202 26.7
2020-Aug-11 09:51 202 0 gusting 1 26.7
2020-Aug-11 09:47 201 26.7
2020-Aug-11 09:05 072 26.1
2020-Aug-11 08:50 223 25.6
2020-Aug-11 08:40 206 25.6
2020-Aug-11 08:05 256 1 gusting 2 24.4
2020-Aug-11 08:02 020 24.4
2020-Aug-11 07:45 013 23.9
2020-Aug-11 07:35 011 23.3
2020-Aug-11 07:31 011 23.3
2020-Aug-11 07:05 020 22.2
2020-Aug-11 06:45 020 21.1
2020-Aug-11 06:35 020 20.6
2020-Aug-11 06:16 020 21.1
2020-Aug-11 06:10 360 21.1
2020-Aug-11 06:05 001 20.6
2020-Aug-11 06:01 338 0 gusting 1 20.6
2020-Aug-11 05:40 332 1 gusting 2 20.6
2020-Aug-11 05:31 344 20.0
2020-Aug-11 05:25 340 0 gusting 2 20.0
2020-Aug-11 05:00 008 20.0
2020-Aug-11 04:55 008 20.6
2020-Aug-11 04:50 003 20.6
2020-Aug-11 04:40 005 20.6
2020-Aug-11 04:30 004 20.6
2020-Aug-11 04:25 335 20.6
2020-Aug-11 04:20 327 0 gusting 2 20.6
2020-Aug-11 04:15 014 20.6
2020-Aug-11 04:10 279 20.6
2020-Aug-11 04:05 269 1 gusting 3 20.6
2020-Aug-11 03:55 358 20.6
2020-Aug-11 03:50 358 20.6
2020-Aug-11 03:40 333 20.6
2020-Aug-11 03:35 332 20.6
2020-Aug-11 03:25 334 1 gusting 2 20.6
2020-Aug-11 03:15 008 0 gusting 3 21.1
2020-Aug-11 03:10 321 1 gusting 4 20.6
2020-Aug-11 03:05 326 1 gusting 4 20.6
2020-Aug-11 02:55 018 21.1
2020-Aug-11 02:50 011 21.1
2020-Aug-11 02:40 022 21.1
2020-Aug-11 02:35 024 0 gusting 2 21.1
2020-Aug-11 02:25 328 1 gusting 2 21.1
2020-Aug-11 02:20 327 1 gusting 3 21.1
2020-Aug-11 02:10 351 0 gusting 2 21.1
2020-Aug-11 02:05 039 21.1
2020-Aug-11 01:55 317 2 gusting 3 21.1
2020-Aug-11 01:50 001 21.1
2020-Aug-11 01:40 028 21.1
2020-Aug-11 01:30 339 21.1
2020-Aug-11 01:25 337 21.1
2020-Aug-11 01:20 337 21.1
2020-Aug-11 01:15 337 0 gusting 2 21.1
2020-Aug-11 01:10 346 1 gusting 2 21.1
2020-Aug-11 01:00 011 21.1
2020-Aug-11 00:55 012 21.1
2020-Aug-11 00:50 360 21.1
2020-Aug-11 00:40 360 21.7
2020-Aug-11 00:30 353 21.7
2020-Aug-11 00:25 353 21.7
2020-Aug-11 00:20 352 0 gusting 3 21.7
2020-Aug-11 00:10 326 21.7
2020-Aug-11 00:05 029 21.7
2020-Aug-10 23:55 005 21.7
2020-Aug-10 23:45 346 21.7
2020-Aug-10 23:40 029 21.7
2020-Aug-10 23:35 029 22.2
2020-Aug-10 23:25 029 22.2
2020-Aug-10 23:20 017 22.2
2020-Aug-10 23:15 015 22.2
2020-Aug-10 23:05 015 22.2
2020-Aug-10 22:55 019 22.8
2020-Aug-10 22:50 026 22.8
2020-Aug-10 22:40 003 22.2
2020-Aug-10 22:35 255 22.2
2020-Aug-10 22:25 354 22.2
2020-Aug-10 22:20 354 22.2
2020-Aug-10 22:10 354 22.2
2020-Aug-10 22:01 310 2 gusting 4 22.2
2020-Aug-10 21:55 330 1 gusting 3 22.2
2020-Aug-10 21:50 341 22.2
2020-Aug-10 21:40 321 22.8
2020-Aug-10 21:35 317 1 gusting 2 22.8
2020-Aug-10 21:20 322 1 gusting 3 22.8
2020-Aug-10 21:15 318 0 gusting 3 22.8
2020-Aug-10 21:10 313 2 gusting 4 22.8
2020-Aug-10 20:55 326 1 gusting 2 22.8
2020-Aug-10 20:50 351 22.8
2020-Aug-10 20:40 273 0 gusting 2 22.8
2020-Aug-10 20:35 321 1 gusting 3 22.8
2020-Aug-10 20:30 313 1 gusting 3 22.8
2020-Aug-10 20:25 321 2 gusting 3 22.8
2020-Aug-10 20:20 311 2 gusting 3 22.8
2020-Aug-10 20:15 344 0 gusting 2 23.3
2020-Aug-10 20:10 353 23.3
2020-Aug-10 20:05 334 1 gusting 3 23.3
2020-Aug-10 20:00 313 1 gusting 3 23.3
2020-Aug-10 19:55 318 2 gusting 3 23.9
2020-Aug-10 19:50 332 1 gusting 2 23.9
2020-Aug-10 19:45 350 0 gusting 3 23.9
2020-Aug-10 19:40 303 2 gusting 3 23.9
2020-Aug-10 19:35 322 1 gusting 2 23.9
2020-Aug-10 19:31 351 0 gusting 2 23.9
2020-Aug-10 19:20 089 24.4
2020-Aug-10 19:10 089 25.0
2020-Aug-10 19:05 090 25.0
2020-Aug-10 19:00 091 0 gusting 2 25.0
2020-Aug-10 18:55 112 0 gusting 2 25.0
2020-Aug-10 18:50 069 0 gusting 1 25.6
2020-Aug-10 18:46 088 0 gusting 2 25.6
2020-Aug-10 18:40 083 0 gusting 2 25.6
2020-Aug-10 18:35 091 0 gusting 2 25.6
2020-Aug-10 18:32 100 0 gusting 2 26.1
2020-Aug-10 18:25 109 1 gusting 4 26.1
2020-Aug-10 18:21 123 2 gusting 4 26.1
2020-Aug-10 18:16 108 2 gusting 6 26.7
2020-Aug-10 18:10 145 4 gusting 6 26.7
2020-Aug-10 18:06 086 3 gusting 6 26.7
2020-Aug-10 18:00 138 3 gusting 7 27.2
2020-Aug-10 17:55 140 4 gusting 7 27.2
2020-Aug-10 17:50 115 4 gusting 6 27.2
2020-Aug-10 17:46 097 4 gusting 6 27.2
2020-Aug-10 17:25 080 2 gusting 6 27.2
2020-Aug-10 17:20 105 2 gusting 6 27.8
2020-Aug-10 17:10 067 3 gusting 6 27.8
2020-Aug-10 17:05 094 1 gusting 6 27.8
2020-Aug-10 16:55 130 3 gusting 6 27.8
2020-Aug-10 16:51 059 3 gusting 7 27.8
2020-Aug-10 16:46 091 2 gusting 7 28.3
2020-Aug-10 16:40 086 5 gusting 7 27.8
2020-Aug-10 16:16 107 2 gusting 6 28.3
2020-Aug-10 16:10 120 2 gusting 6 28.3
2020-Aug-10 15:50 086 3 gusting 6 27.2
2020-Aug-10 15:46 088 2 gusting 6 26.7
2020-Aug-10 15:40 090 3 gusting 6 26.7
2020-Aug-10 15:36 183 2 gusting 5 27.2
2020-Aug-10 15:15 087 1 gusting 6 26.1
2020-Aug-10 14:45 132 4 gusting 10 26.7
2020-Aug-10 14:40 102 6 gusting 10 26.7
2020-Aug-10 13:35 055 6 gusting 13 28.9
2020-Aug-10 13:25 074 7 gusting 14 28.3
2020-Aug-10 13:20 061 7 gusting 14 28.3
2020-Aug-10 13:10 071 7 gusting 13 28.9
2020-Aug-10 13:06 081 8 gusting 14 28.9
2020-Aug-10 13:00 058 7 gusting 14 30.0
2020-Aug-10 12:55 093 7 gusting 14 30.6
2020-Aug-10 12:30 105 4 gusting 13 31.7
2020-Aug-10 12:25 151 7 gusting 13 31.7
2020-Aug-10 12:20 204 6 gusting 13 31.7
2020-Aug-10 12:16 171 7 gusting 13 31.7
2020-Aug-10 12:10 228 4 gusting 7 31.7
2020-Aug-10 12:05 080 3 gusting 10 32.2
2020-Aug-10 12:00 124 6 gusting 10 31.7
2020-Aug-10 11:55 161 1 gusting 13 31.7
2020-Aug-10 11:51 202 8 gusting 14 31.7
2020-Aug-10 11:46 156 6 gusting 14 31.1
2020-Aug-10 11:35 100 6 gusting 11 31.1
2020-Aug-10 11:30 105 1 gusting 11 30.6
2020-Aug-10 11:25 057 6 gusting 9 30.0
2020-Aug-10 11:20 090 6 gusting 10 30.0
2020-Aug-10 11:15 090 6 gusting 10 30.6
2020-Aug-10 11:10 117 6 gusting 9 30.0
2020-Aug-10 11:05 107 5 gusting 10 30.0
2020-Aug-10 11:00 159 6 gusting 10 30.6
2020-Aug-10 10:25 116 5 gusting 8 29.4
2020-Aug-10 10:20 143 2 gusting 7 29.4
2020-Aug-10 10:10 164 6 gusting 10 28.9
2020-Aug-10 10:05 152 4 gusting 9 29.4
2020-Aug-10 10:00 126 5 gusting 9 28.9
2020-Aug-10 09:50 148 3 gusting 7 28.3
2020-Aug-10 09:45 162 3 gusting 8 28.3
2020-Aug-10 09:40 156 2 gusting 8 28.3
2020-Aug-10 09:35 154 5 gusting 8 28.3
2020-Aug-10 09:31 157 4 gusting 8 28.3
2020-Aug-10 09:26 134 4 gusting 11 28.9
2020-Aug-10 08:50 124 2 gusting 7 28.3
2020-Aug-10 08:45 116 4 gusting 6 28.3
2020-Aug-10 08:40 136 3 gusting 6 28.3
2020-Aug-10 08:36 128 3 gusting 9 28.3
2020-Aug-10 08:32 157 5 gusting 9 28.3
2020-Aug-10 08:20 110 2 gusting 6 28.3
2020-Aug-10 08:16 121 2 gusting 6 28.3
2020-Aug-10 08:11 163 3 gusting 7 28.3
2020-Aug-10 08:05 130 4 gusting 7 27.8
2020-Aug-10 08:02 098 1 gusting 5 27.8
2020-Aug-10 07:55 076 27.8
2020-Aug-10 07:50 116 0 gusting 2 27.8
2020-Aug-10 07:45 116 0 gusting 2 27.2
2020-Aug-10 07:40 050 0 gusting 2 27.2
2020-Aug-10 06:32 226 22.8
2020-Aug-10 06:25 073 22.2
2020-Aug-10 06:20 074 22.2
2020-Aug-10 06:16 074 22.2
2020-Aug-10 06:10 074 21.7
2020-Aug-10 06:05 073 21.1
2020-Aug-10 06:00 074 21.1